Terminal Aerodrome Forecast
Issued by NWS

Home | Current Version | Previous Version | Graphics & Text | Print | Product List | Glossary On
Versions: 1 2 3 4 5 6 7 8 9 10 11 12 13 14 15 16 17
000
FTUS43 KGRB 012300
TAFCWA
TAF
KCWA 012321Z 0200/0224 VRB03KT P6SM SCT050 SCT100
     FM020400 VRB02KT 5SM BR SKC
      TEMPO 0208/0212 1 1/2SM BR
     FM021500 15004KT P6SM SCT050 SCT080
      AMD LTD TO CLD VIS AND WIND 0203/0211=

USA.gov is the U.S. government's official web portal to all federal, state and local government web resources and services.